Time;durP1;ratioP1;P1;durP2;ratioP2;P2;SDS_P1;SDS_P2;PMS_P1;PMS_P2;Temp;Humidity;BMP_temperature;BMP_pressure;BME280_temperature;BME280_humidity;BME280_pressure;Samples;Min_cycle;Max_cycle;Signal;HPM_P1;HPM_P2
2021/12/28 00:00:09;;;;;;;33.63;5.68;;;10.90;99.90;;;;;;4191295;28;20055;-77
2021/12/28 00:02:10;;;;;;;33.42;4.55;;;11.00;99.90;;;;;;4177311;28;20042;-77
2021/12/28 00:04:13;;;;;;;42.63;5.60;;;11.00;99.90;;;;;;4193414;28;20048;-78
2021/12/28 00:06:15;;;;;;;35.13;6.00;;;11.00;99.90;;;;;;4193145;28;20061;-79
2021/12/28 00:08:19;;;;;;;38.78;4.95;;;11.00;99.90;;;;;;4185825;28;20110;-77
2021/12/28 00:10:21;;;;;;;40.03;5.45;;;11.00;99.90;;;;;;4195874;28;20052;-81
2021/12/28 00:12:23;;;;;;;31.08;5.05;;;11.00;99.90;;;;;;4180456;28;20087;-81
2021/12/28 00:14:34;;;;;;;25.65;4.97;;;11.10;99.90;;;;;;4185573;28;20099;-78
2021/12/28 00:18:57;;;;;;;38.28;5.57;;;11.10;99.90;;;;;;4167496;28;20425;-78
2021/12/28 00:21:01;;;;;;;36.15;4.75;;;11.10;99.90;;;;;;4199201;28;20436;-77
2021/12/28 00:23:06;;;;;;;30.90;4.78;;;11.10;99.90;;;;;;4202731;28;20083;-76
2021/12/28 00:25:08;;;;;;;31.67;4.22;;;11.10;99.90;;;;;;4165766;28;20137;-77
2021/12/28 00:27:10;;;;;;;36.15;5.43;;;11.10;99.90;;;;;;4182059;28;20045;-79
2021/12/28 00:29:12;;;;;;;38.13;4.68;;;11.10;99.90;;;;;;4165447;28;20085;-79
2021/12/28 00:31:15;;;;;;;29.80;5.10;;;11.10;99.90;;;;;;4181491;28;20052;-79
2021/12/28 00:33:19;;;;;;;33.40;4.55;;;11.10;99.90;;;;;;4181310;28;20128;-77
2021/12/28 00:35:23;;;;;;;39.10;5.55;;;11.10;99.90;;;;;;4182133;28;20437;-78
2021/12/28 00:37:25;;;;;;;34.50;3.95;;;11.20;99.90;;;;;;4165942;28;20192;-78
2021/12/28 00:39:27;;;;;;;25.77;4.80;;;11.30;99.90;;;;;;4182015;28;20084;-78
2021/12/28 00:41:29;;;;;;;43.83;5.00;;;11.30;99.90;;;;;;4173219;28;20135;-78
2021/12/28 00:43:32;;;;;;;31.17;5.35;;;11.40;99.90;;;;;;4181162;28;20052;-76
2021/12/28 00:45:34;;;;;;;40.33;5.07;;;11.50;99.90;;;;;;4181736;28;20128;-79
2021/12/28 00:47:36;;;;;;;34.05;5.80;;;11.40;99.90;;;;;;4176500;28;20065;-77
2021/12/28 00:49:38;;;;;;;32.25;4.97;;;11.40;99.90;;;;;;4176665;28;20059;-77
2021/12/28 00:51:40;;;;;;;34.47;4.82;;;11.40;99.90;;;;;;4184768;28;20527;-77
2021/12/28 00:53:42;;;;;;;39.38;6.00;;;11.40;99.90;;;;;;4181745;28;20111;-77
2021/12/28 00:55:44;;;;;;;29.92;4.20;;;11.40;99.90;;;;;;4182834;28;20071;-77
2021/12/28 00:57:47;;;;;;;34.22;4.93;;;11.40;99.90;;;;;;4181150;28;20056;-77
2021/12/28 00:59:49;;;;;;;32.28;4.93;;;11.40;99.90;;;;;;4178772;28;20060;-78
2021/12/28 01:01:51;;;;;;;36.97;5.25;;;11.40;99.90;;;;;;4166772;28;20045;-78
2021/12/28 01:03:53;;;;;;;33.22;4.35;;;11.40;99.90;;;;;;4180507;28;20045;-77
2021/12/28 01:05:56;;;;;;;38.65;5.28;;;11.30;99.90;;;;;;4180847;28;20045;-78
2021/12/28 01:07:58;;;;;;;40.78;5.25;;;11.30;99.90;;;;;;4165172;28;20073;-77
2021/12/28 01:10:01;;;;;;;31.80;5.10;;;11.20;99.90;;;;;;4167354;28;20041;-78
2021/12/28 01:12:05;;;;;;;34.35;4.47;;;11.20;99.90;;;;;;4165279;28;20053;-79
2021/12/28 01:14:07;;;;;;;40.63;5.37;;;11.10;99.90;;;;;;4178395;28;20076;-77
2021/12/28 01:16:09;;;;;;;42.83;4.65;;;11.00;99.90;;;;;;4171904;28;20284;-77
2021/12/28 01:18:12;;;;;;;35.22;5.43;;;11.00;99.90;;;;;;4181400;28;20146;-78
2021/12/28 01:20:15;;;;;;;34.20;4.68;;;11.00;99.90;;;;;;4175293;28;20045;-77
2021/12/28 01:22:17;;;;;;;40.35;4.90;;;11.00;99.90;;;;;;4169255;28;20045;-79
2021/12/28 01:24:19;;;;;;;33.58;4.78;;;11.00;99.90;;;;;;4179301;28;20084;-77
2021/12/28 01:26:21;;;;;;;38.40;5.35;;;11.00;99.90;;;;;;4175269;28;20076;-78
2021/12/28 01:28:23;;;;;;;45.97;5.03;;;11.00;99.90;;;;;;4163414;28;20045;-78
2021/12/28 01:30:26;;;;;;;33.58;3.70;;;11.00;99.90;;;;;;4164378;28;20073;-79
2021/12/28 01:32:28;;;;;;;35.58;5.00;;;11.00;99.90;;;;;;4171501;28;20139;-78
2021/12/28 01:34:30;;;;;;;34.53;4.63;;;11.10;99.90;;;;;;4181462;28;20060;-78
2021/12/28 01:36:32;;;;;;;42.95;4.45;;;11.10;99.90;;;;;;4180292;28;20108;-78
2021/12/28 01:38:34;;;;;;;44.30;4.82;;;11.00;99.90;;;;;;4179614;28;20088;-78
2021/12/28 01:40:39;;;;;;;41.75;4.72;;;11.00;99.90;;;;;;4164618;28;20077;-78
2021/12/28 01:43:15;;;;;;;45.95;4.53;;;11.00;99.90;;;;;;4164716;28;20061;-78
2021/12/28 01:45:17;;;;;;;42.07;4.67;;;11.00;99.90;;;;;;4154565;28;20053;-78
2021/12/28 01:47:19;;;;;;;43.35;5.78;;;11.00;99.90;;;;;;4180737;28;20303;-77
2021/12/28 01:49:21;;;;;;;48.63;5.65;;;11.00;99.90;;;;;;4180970;28;20064;-77
2021/12/28 01:51:24;;;;;;;40.63;6.05;;;11.00;99.90;;;;;;4169113;28;20045;-76
2021/12/28 01:53:27;;;;;;;47.85;6.45;;;11.00;99.90;;;;;;4164288;28;20136;-77
2021/12/28 01:55:30;;;;;;;49.13;6.03;;;11.00;99.90;;;;;;4164189;28;20088;-78
2021/12/28 01:57:32;;;;;;;50.55;5.65;;;10.90;99.90;;;;;;4180756;28;20147;-78
2021/12/28 01:59:34;;;;;;;58.00;7.22;;;10.90;99.90;;;;;;4178525;28;20111;-77
2021/12/28 02:01:37;;;;;;;46.95;6.07;;;10.90;99.90;;;;;;4163820;28;20132;-78
2021/12/28 02:03:40;;;;;;;39.33;5.55;;;10.90;99.90;;;;;;4164299;28;20053;-77
2021/12/28 02:05:43;;;;;;;48.78;5.60;;;11.00;99.90;;;;;;4163685;28;20077;-79
2021/12/28 02:07:45;;;;;;;50.45;6.05;;;11.00;99.90;;;;;;4163154;28;20440;-78
2021/12/28 02:09:47;;;;;;;47.50;5.60;;;11.10;99.90;;;;;;4175490;28;20053;-78
2021/12/28 02:11:49;;;;;;;40.15;4.95;;;11.10;99.90;;;;;;4165768;28;20128;-77
2021/12/28 02:13:51;;;;;;;48.25;5.65;;;11.10;99.90;;;;;;4167518;28;20041;-76
2021/12/28 02:15:56;;;;;;;44.08;5.88;;;11.10;99.90;;;;;;4171992;28;20064;-77
2021/12/28 02:17:58;;;;;;;44.08;6.28;;;11.10;99.90;;;;;;4173358;28;20544;-77
2021/12/28 02:20:10;;;;;;;60.08;6.45;;;11.00;99.90;;;;;;4164150;28;20053;-77
2021/12/28 02:22:12;;;;;;;47.83;5.55;;;11.00;99.90;;;;;;4172417;28;20052;-78
2021/12/28 02:24:14;;;;;;;47.90;5.40;;;11.10;99.90;;;;;;4171418;28;20088;-78
2021/12/28 02:26:16;;;;;;;46.70;5.07;;;11.10;99.90;;;;;;4173832;28;20073;-78
2021/12/28 02:28:18;;;;;;;51.25;6.22;;;11.10;99.90;;;;;;4190585;28;20053;-81
2021/12/28 02:30:21;;;;;;;50.35;7.22;;;11.10;99.90;;;;;;4194666;28;20051;-77
2021/12/28 02:32:27;;;;;;;54.58;6.22;;;11.20;99.90;;;;;;4178643;28;20075;-78
2021/12/28 02:34:29;;;;;;;48.10;6.22;;;11.20;99.90;;;;;;4166414;28;20049;-76
2021/12/28 02:36:31;;;;;;;59.05;6.60;;;11.20;99.90;;;;;;4167298;28;20061;-83
2021/12/28 02:38:34;;;;;;;46.30;6.78;;;11.20;99.90;;;;;;4167335;28;20045;-83
2021/12/28 02:40:38;;;;;;;52.30;7.13;;;11.20;99.90;;;;;;4164256;28;20069;-77
2021/12/28 02:42:41;;;;;;;48.70;6.40;;;11.10;99.90;;;;;;4179989;28;20053;-78
2021/12/28 02:44:43;;;;;;;47.25;6.25;;;11.10;99.90;;;;;;4180349;28;20146;-78
2021/12/28 02:46:45;;;;;;;61.70;7.05;;;11.10;99.90;;;;;;4178647;28;20127;-77
2021/12/28 02:48:47;;;;;;;44.03;5.95;;;11.10;99.90;;;;;;4177520;28;20432;-79
2021/12/28 02:50:57;;;;;;;39.05;5.60;;;11.10;99.90;;;;;;4180354;28;20428;-78
2021/12/28 02:52:59;;;;;;;49.67;5.78;;;11.20;99.90;;;;;;4180092;28;20067;-78
2021/12/28 02:55:01;;;;;;;63.05;7.28;;;11.30;99.90;;;;;;4179041;28;20060;-77
2021/12/28 02:57:03;;;;;;;45.92;6.88;;;11.30;99.90;;;;;;4175258;28;20084;-77
2021/12/28 02:59:05;;;;;;;52.40;6.40;;;11.40;99.90;;;;;;4180378;28;20072;-78
2021/12/28 03:01:13;;;;;;;55.00;6.38;;;11.30;99.90;;;;;;4179808;28;20603;-78
2021/12/28 03:03:19;;;;;;;49.58;6.80;;;11.30;99.90;;;;;;4178188;28;20053;-77
2021/12/28 03:05:22;;;;;;;57.38;6.85;;;11.30;99.90;;;;;;4165705;28;20073;-78
2021/12/28 03:07:24;;;;;;;54.65;7.75;;;11.30;99.90;;;;;;4174787;28;20072;-77
2021/12/28 03:09:26;;;;;;;60.97;7.10;;;11.30;99.90;;;;;;4179932;28;20140;-77
2021/12/28 03:11:29;;;;;;;51.40;6.93;;;11.20;99.90;;;;;;4180002;28;20531;-77
2021/12/28 03:13:45;;;;;;;50.88;6.40;;;11.20;99.90;;;;;;4180625;28;20497;-78
2021/12/28 03:15:47;;;;;;;45.72;7.22;;;11.20;99.90;;;;;;4168658;28;20049;-78
2021/12/28 03:17:49;;;;;;;50.67;5.72;;;11.30;99.90;;;;;;4170413;28;20536;-81
2021/12/28 03:19:51;;;;;;;55.13;7.18;;;11.30;99.90;;;;;;4164377;28;20060;-78
2021/12/28 03:21:53;;;;;;;62.65;6.65;;;11.30;99.90;;;;;;4168453;28;20135;-77
2021/12/28 03:23:56;;;;;;;49.30;5.93;;;11.30;99.90;;;;;;4176283;28;20053;-78
2021/12/28 03:25:58;;;;;;;47.08;6.20;;;11.30;99.90;;;;;;4163191;28;20041;-77
2021/12/28 03:28:01;;;;;;;52.15;7.10;;;11.20;99.90;;;;;;4177189;28;20050;-78
2021/12/28 03:30:09;;;;;;;53.80;6.03;;;11.20;99.90;;;;;;4163065;28;20045;-79
2021/12/28 03:32:11;;;;;;;51.25;7.60;;;11.10;99.90;;;;;;4163194;28;20429;-77
2021/12/28 03:34:14;;;;;;;56.30;7.03;;;11.10;99.90;;;;;;4163362;28;20673;-79
2021/12/28 03:36:17;;;;;;;44.10;6.97;;;11.10;99.90;;;;;;4164514;28;20719;-80
2021/12/28 03:38:20;;;;;;;52.72;5.93;;;11.10;99.90;;;;;;4180120;28;20041;-78
2021/12/28 03:40:22;;;;;;;36.70;5.78;;;11.10;99.90;;;;;;4163260;28;20053;-79
2021/12/28 03:42:24;;;;;;;40.20;5.22;;;11.10;99.90;;;;;;4163481;28;20246;-77
2021/12/28 03:44:26;;;;;;;51.67;6.78;;;11.10;99.90;;;;;;4163232;28;20076;-80
2021/12/28 03:46:29;;;;;;;51.25;5.65;;;11.10;99.90;;;;;;4171456;28;20077;-78
2021/12/28 03:48:31;;;;;;;49.28;7.10;;;11.10;99.90;;;;;;4163526;28;20050;-78
2021/12/28 03:50:35;;;;;;;53.67;7.10;;;11.10;99.90;;;;;;4163342;28;20046;-79
2021/12/28 03:52:39;;;;;;;49.20;6.40;;;11.10;99.90;;;;;;4164932;28;20073;-77
2021/12/28 03:54:42;;;;;;;58.33;7.20;;;11.10;99.90;;;;;;4168264;28;20090;-79
2021/12/28 03:56:44;;;;;;;50.00;5.78;;;11.00;99.90;;;;;;4170538;28;20428;-80
2021/12/28 03:58:47;;;;;;;51.20;5.78;;;11.10;99.90;;;;;;4166605;28;20108;-80
2021/12/28 04:00:50;;;;;;;45.33;5.60;;;11.10;99.90;;;;;;4166632;28;20077;-79
2021/12/28 04:02:52;;;;;;;55.58;6.07;;;11.00;99.90;;;;;;4166196;28;20100;-79
2021/12/28 04:04:54;;;;;;;55.55;7.07;;;11.00;99.90;;;;;;4182313;28;20589;-77
2021/12/28 04:06:56;;;;;;;37.90;6.03;;;11.00;99.90;;;;;;4182926;28;20072;-79
2021/12/28 04:09:00;;;;;;;40.47;4.55;;;11.00;99.90;;;;;;4182769;28;20460;-78
2021/12/28 04:11:15;;;;;;;39.55;4.57;;;11.00;99.90;;;;;;4182979;28;20053;-78
2021/12/28 04:13:18;;;;;;;44.83;5.85;;;11.00;99.90;;;;;;4180514;28;20085;-78
2021/12/28 04:15:20;;;;;;;41.55;5.55;;;11.00;99.90;;;;;;4169441;28;20050;-79
2021/12/28 04:17:24;;;;;;;36.15;4.65;;;11.00;99.90;;;;;;4177644;28;20203;-79
2021/12/28 04:19:26;;;;;;;29.27;4.95;;;11.00;99.90;;;;;;4174123;28;20056;-77
2021/12/28 04:21:28;;;;;;;34.72;5.20;;;11.00;99.90;;;;;;4174803;28;20045;-80
2021/12/28 04:23:30;;;;;;;43.00;5.00;;;11.00;99.90;;;;;;4166750;28;20053;-79
2021/12/28 04:25:33;;;;;;;30.00;4.85;;;11.00;99.90;;;;;;4165968;28;20060;-78
2021/12/28 04:27:35;;;;;;;26.83;3.88;;;11.10;99.90;;;;;;4178547;28;20044;-78
2021/12/28 04:29:38;;;;;;;32.00;5.47;;;11.10;99.90;;;;;;4178387;28;20412;-81
2021/12/28 04:31:40;;;;;;;29.63;4.22;;;11.10;99.90;;;;;;4169240;28;20052;-79
2021/12/28 04:33:42;;;;;;;32.70;4.35;;;11.20;99.90;;;;;;4165865;28;20433;-79
2021/12/28 04:35:44;;;;;;;37.15;4.43;;;11.20;99.90;;;;;;4165970;28;20112;-79
2021/12/28 04:37:46;;;;;;;24.40;3.53;;;11.20;99.90;;;;;;4166085;28;20077;-79
2021/12/28 04:39:48;;;;;;;43.65;4.82;;;11.20;99.90;;;;;;4172758;28;20542;-78
2021/12/28 04:41:50;;;;;;;26.77;5.07;;;11.20;99.90;;;;;;4182724;28;20076;-76
2021/12/28 04:43:52;;;;;;;31.45;4.25;;;11.20;99.90;;;;;;4179774;28;20045;-79
2021/12/28 04:45:54;;;;;;;33.50;4.55;;;11.20;99.90;;;;;;4166507;28;20042;-79
2021/12/28 04:47:56;;;;;;;29.90;3.90;;;11.20;99.90;;;;;;4176233;28;20045;-79
2021/12/28 04:49:59;;;;;;;23.48;3.67;;;11.20;99.90;;;;;;4171345;28;20045;-79
2021/12/28 04:52:02;;;;;;;30.13;4.25;;;11.20;99.90;;;;;;4165768;28;20124;-79
2021/12/28 04:54:10;;;;;;;25.60;3.58;;;11.20;99.90;;;;;;4166497;28;20128;-79
2021/12/28 04:56:12;;;;;;;34.00;4.55;;;11.30;99.90;;;;;;4177784;28;20523;-79
2021/12/28 04:58:15;;;;;;;32.50;5.25;;;11.30;99.90;;;;;;4181346;28;20131;-79
2021/12/28 05:00:24;;;;;;;26.10;4.30;;;11.40;99.90;;;;;;4182162;28;20088;-78
2021/12/28 05:02:26;;;;;;;44.70;5.40;;;11.40;99.90;;;;;;4180752;28;20444;-78
2021/12/28 05:04:28;;;;;;;35.90;4.70;;;11.40;99.90;;;;;;4180939;28;20076;-78
2021/12/28 05:06:30;;;;;;;30.83;3.33;;;11.30;99.90;;;;;;4164718;28;20076;-79
2021/12/28 05:08:33;;;;;;;33.28;3.40;;;11.30;99.90;;;;;;4177286;28;20056;-79
2021/12/28 05:10:35;;;;;;;34.30;4.45;;;11.30;99.90;;;;;;4177095;28;20045;-80
2021/12/28 05:12:37;;;;;;;28.17;3.10;;;11.20;99.90;;;;;;4177521;28;20088;-80
2021/12/28 05:14:41;;;;;;;31.70;4.13;;;11.20;99.90;;;;;;4166074;28;20077;-79
2021/12/28 05:16:43;;;;;;;35.80;4.50;;;11.20;99.90;;;;;;4165946;28;20054;-79
2021/12/28 05:18:45;;;;;;;41.97;4.32;;;11.10;99.90;;;;;;4169589;28;20051;-78
2021/12/28 05:20:47;;;;;;;41.92;4.90;;;11.00;99.90;;;;;;4177276;28;20491;-78
2021/12/28 05:22:49;;;;;;;30.90;3.88;;;10.90;99.90;;;;;;4167514;28;20073;-80
2021/12/28 05:24:51;;;;;;;29.80;3.63;;;10.90;99.90;;;;;;4184245;28;20057;-82
2021/12/28 05:26:53;;;;;;;26.08;3.60;;;10.90;99.90;;;;;;4170335;28;20513;-79
2021/12/28 05:28:55;;;;;;;34.60;3.67;;;10.90;99.90;;;;;;4170844;28;20100;-79
2021/12/28 05:30:57;;;;;;;35.78;4.18;;;10.90;99.90;;;;;;4165624;28;20088;-77
2021/12/28 05:32:59;;;;;;;33.45;4.72;;;11.00;99.90;;;;;;4164501;28;20085;-77
2021/12/28 05:35:01;;;;;;;41.40;4.88;;;11.00;99.90;;;;;;4174734;28;20044;-79
2021/12/28 05:37:03;;;;;;;35.40;3.55;;;11.00;99.90;;;;;;4169640;28;20058;-79
2021/12/28 05:39:05;;;;;;;53.60;4.70;;;11.00;99.90;;;;;;4168226;28;20045;-80
2021/12/28 05:41:08;;;;;;;50.15;5.13;;;11.10;99.90;;;;;;4164159;28;20057;-80
2021/12/28 05:43:10;;;;;;;35.92;5.00;;;11.10;99.90;;;;;;4179071;28;20569;-80
2021/12/28 05:45:12;;;;;;;35.22;5.45;;;11.00;99.90;;;;;;4180751;28;20544;-80
2021/12/28 05:47:14;;;;;;;57.67;5.72;;;11.00;99.90;;;;;;4179206;28;20532;-80
2021/12/28 05:49:16;;;;;;;47.95;5.85;;;10.90;99.90;;;;;;4164051;28;20111;-79
2021/12/28 05:51:19;;;;;;;55.28;5.85;;;10.80;99.90;;;;;;4163236;28;20046;-79
2021/12/28 05:53:21;;;;;;;44.28;6.53;;;10.80;99.90;;;;;;4182409;28;20531;-80
2021/12/28 05:55:23;;;;;;;56.85;6.07;;;10.70;99.90;;;;;;4180523;28;20041;-79
2021/12/28 05:57:25;;;;;;;58.85;7.05;;;10.70;99.90;;;;;;4182217;28;20450;-80
2021/12/28 05:59:26;;;;;;;58.60;7.63;;;10.60;99.90;;;;;;4172718;28;20073;-79
2021/12/28 06:01:28;;;;;;;66.47;6.85;;;10.60;99.90;;;;;;4163908;28;20469;-79
2021/12/28 06:03:31;;;;;;;71.70;7.35;;;10.50;99.90;;;;;;4163796;28;20045;-77
2021/12/28 06:05:33;;;;;;;52.10;6.88;;;10.50;99.90;;;;;;4172163;28;20088;-80
2021/12/28 06:07:35;;;;;;;68.68;7.07;;;10.50;99.90;;;;;;4170224;28;20513;-80
2021/12/28 06:09:37;;;;;;;63.47;7.03;;;10.50;99.90;;;;;;4180644;28;20052;-79
2021/12/28 06:11:39;;;;;;;69.18;7.70;;;10.50;99.90;;;;;;4177423;28;20057;-81
2021/12/28 06:13:41;;;;;;;65.50;7.55;;;10.50;99.90;;;;;;4179020;28;20080;-80
2021/12/28 06:15:43;;;;;;;57.58;7.63;;;10.50;99.90;;;;;;4179325;28;20619;-79
2021/12/28 06:17:45;;;;;;;82.78;9.77;;;10.50;99.90;;;;;;4179681;28;20053;-79
2021/12/28 06:19:47;;;;;;;65.63;7.88;;;10.50;99.90;;;;;;4173449;28;20076;-80
2021/12/28 06:21:49;;;;;;;73.97;7.88;;;10.50;99.90;;;;;;4163728;28;20080;-80
2021/12/28 06:23:51;;;;;;;73.70;9.60;;;10.50;99.90;;;;;;4163637;28;20061;-80
2021/12/28 06:25:53;;;;;;;65.47;7.68;;;10.50;99.90;;;;;;4164101;28;20064;-84
2021/12/28 06:27:55;;;;;;;75.82;8.68;;;10.50;99.90;;;;;;4164049;28;20080;-80
2021/12/28 06:29:57;;;;;;;78.38;8.70;;;10.50;99.90;;;;;;4174585;28;20048;-80
2021/12/28 06:31:59;;;;;;;60.55;9.65;;;10.50;99.90;;;;;;4180337;28;20141;-79
2021/12/28 06:34:03;;;;;;;78.43;9.15;;;10.50;99.90;;;;;;4179999;28;20052;-79
2021/12/28 06:36:05;;;;;;;96.30;9.40;;;10.50;99.90;;;;;;4176103;28;20084;-80
2021/12/28 06:38:07;;;;;;;71.32;9.23;;;10.50;99.90;;;;;;4171022;28;20056;-80
2021/12/28 06:40:11;;;;;;;72.25;9.45;;;10.50;99.90;;;;;;4180134;28;20049;-81
2021/12/28 06:42:13;;;;;;;87.07;11.20;;;10.50;99.90;;;;;;4178492;28;20056;-80
2021/12/28 06:44:15;;;;;;;75.53;8.88;;;10.50;99.90;;;;;;4163388;28;20046;-80
2021/12/28 06:46:17;;;;;;;74.88;8.93;;;10.60;99.90;;;;;;4163493;28;20077;-79
2021/12/28 06:48:19;;;;;;;79.13;9.82;;;10.70;99.90;;;;;;4163417;28;20423;-80
2021/12/28 06:50:21;;;;;;;76.85;9.88;;;10.70;99.90;;;;;;4165146;28;20061;-80
2021/12/28 06:52:23;;;;;;;67.90;8.85;;;10.70;99.90;;;;;;4175689;28;20048;-79
2021/12/28 06:54:25;;;;;;;66.47;10.02;;;10.80;99.90;;;;;;4167309;28;20070;-78
2021/12/28 06:56:26;;;;;;;71.05;9.35;;;10.80;99.90;;;;;;4179226;28;20056;-79
2021/12/28 06:58:29;;;;;;;66.10;7.18;;;10.90;99.90;;;;;;4181473;28;20076;-78
2021/12/28 07:00:32;;;;;;;78.72;9.73;;;10.90;99.90;;;;;;4164643;28;20081;-80
2021/12/28 07:02:34;;;;;;;71.05;10.57;;;10.90;99.90;;;;;;4163442;28;20061;-79
2021/12/28 07:04:36;;;;;;;74.07;9.43;;;10.90;99.90;;;;;;4163282;28;20061;-79
2021/12/28 07:06:38;;;;;;;61.85;9.13;;;10.90;99.90;;;;;;4173479;28;20088;-80
2021/12/28 07:08:41;;;;;;;63.35;8.98;;;10.90;99.90;;;;;;4178928;28;20048;-78
2021/12/28 07:10:43;;;;;;;82.00;8.98;;;10.90;99.90;;;;;;4179560;28;20527;-81
2021/12/28 07:12:45;;;;;;;73.63;9.27;;;11.00;99.90;;;;;;4181548;28;20052;-77
2021/12/28 07:14:47;;;;;;;61.22;9.00;;;11.00;99.90;;;;;;4180462;28;20087;-78
2021/12/28 07:16:49;;;;;;;75.40;9.85;;;10.90;99.90;;;;;;4179116;28;20081;-80
2021/12/28 07:18:51;;;;;;;65.72;9.50;;;10.90;99.90;;;;;;4179651;28;20055;-79
2021/12/28 07:20:53;;;;;;;73.90;9.27;;;10.90;99.90;;;;;;4175856;28;20052;-79
2021/12/28 07:22:55;;;;;;;75.60;12.38;;;10.80;99.90;;;;;;4167656;28;20037;-79
2021/12/28 07:24:57;;;;;;;72.88;10.20;;;10.80;99.90;;;;;;4167262;28;20064;-79
2021/12/28 07:26:59;;;;;;;75.78;9.40;;;10.80;99.90;;;;;;4181253;28;20084;-80
2021/12/28 07:29:01;;;;;;;92.65;11.85;;;10.80;99.90;;;;;;4184508;28;20052;-81
2021/12/28 07:31:03;;;;;;;83.18;10.63;;;10.80;99.90;;;;;;4183204;28;20045;-78
2021/12/28 07:33:05;;;;;;;88.70;9.88;;;10.70;99.90;;;;;;4173468;28;20049;-79
2021/12/28 07:35:09;;;;;;;70.05;10.27;;;10.70;99.90;;;;;;4166456;28;20076;-81
2021/12/28 07:37:11;;;;;;;94.70;12.23;;;10.70;99.90;;;;;;4166208;28;20147;-80
2021/12/28 07:39:14;;;;;;;79.65;10.88;;;10.70;99.90;;;;;;4166216;28;20045;-77
2021/12/28 07:41:16;;;;;;;80.03;10.32;;;10.70;99.90;;;;;;4168488;28;20135;-81
2021/12/28 07:43:18;;;;;;;88.03;11.20;;;10.70;99.90;;;;;;4165895;28;20088;-79
2021/12/28 07:45:20;;;;;;;86.70;11.68;;;10.70;99.90;;;;;;4165806;28;20052;-79
2021/12/28 07:47:22;;;;;;;98.50;11.70;;;10.70;99.90;;;;;;4165404;28;20120;-78
2021/12/28 07:49:24;;;;;;;78.20;11.88;;;10.80;99.90;;;;;;4174371;28;20505;-78
2021/12/28 07:51:26;;;;;;;81.90;11.32;;;10.80;99.90;;;;;;4166062;28;20053;-80
2021/12/28 07:53:28;;;;;;;70.15;9.40;;;10.80;99.90;;;;;;4165895;28;20049;-79
2021/12/28 07:55:30;;;;;;;72.38;9.13;;;10.80;99.90;;;;;;4181770;28;20476;-77
2021/12/28 07:57:32;;;;;;;83.22;10.70;;;10.90;99.90;;;;;;4165729;28;20139;-79
2021/12/28 07:59:34;;;;;;;77.57;9.90;;;10.90;99.90;;;;;;4172372;28;20533;-80
2021/12/28 08:01:38;;;;;;;77.82;9.85;;;10.90;99.90;;;;;;4165659;28;20054;-78
2021/12/28 08:03:40;;;;;;;67.65;9.82;;;10.90;99.90;;;;;;4166073;28;20425;-79
2021/12/28 08:05:42;;;;;;;77.85;9.27;;;10.90;99.90;;;;;;4165976;28;20077;-79
2021/12/28 08:07:44;;;;;;;93.80;11.43;;;10.90;99.90;;;;;;4168212;28;20056;-77
2021/12/28 08:09:46;;;;;;;72.53;9.10;;;11.00;99.90;;;;;;4165998;28;20512;-79
2021/12/28 08:11:48;;;;;;;85.82;10.68;;;11.00;99.90;;;;;;4172164;28;20069;-78
2021/12/28 08:13:50;;;;;;;77.90;10.48;;;11.10;99.90;;;;;;4176598;28;20128;-81
2021/12/28 08:15:52;;;;;;;71.88;11.73;;;11.10;99.90;;;;;;4172318;28;20508;-78
2021/12/28 08:17:54;;;;;;;83.18;10.75;;;11.10;99.90;;;;;;4182111;28;20049;-79
2021/12/28 08:19:57;;;;;;;76.35;10.77;;;11.10;99.90;;;;;;4182111;28;20080;-81
2021/12/28 08:21:59;;;;;;;65.85;8.88;;;11.10;99.90;;;;;;4177167;28;20086;-79
2021/12/28 08:24:01;;;;;;;73.30;10.63;;;11.10;99.90;;;;;;4177563;28;20076;-80
2021/12/28 08:26:03;;;;;;;67.05;10.45;;;11.10;99.90;;;;;;4171569;28;20128;-78
2021/12/28 08:28:06;;;;;;;85.95;10.93;;;11.10;99.90;;;;;;4174728;28;20588;-80
2021/12/28 08:30:10;;;;;;;103.75;11.65;;;11.10;99.90;;;;;;4169583;28;20508;-79
2021/12/28 08:32:12;;;;;;;78.18;9.65;;;11.10;99.90;;;;;;4171638;28;20045;-80
2021/12/28 08:34:13;;;;;;;85.32;12.15;;;11.10;99.90;;;;;;4167914;28;20108;-79
2021/12/28 08:36:16;;;;;;;79.55;11.57;;;11.00;99.90;;;;;;4165086;28;20091;-79
2021/12/28 08:38:18;;;;;;;80.78;10.23;;;11.00;99.90;;;;;;4165273;28;20088;-77
2021/12/28 08:40:20;;;;;;;69.03;10.27;;;11.00;99.90;;;;;;4166876;28;20129;-77
2021/12/28 08:42:22;;;;;;;66.35;10.55;;;11.00;99.90;;;;;;4168660;28;20087;-77
2021/12/28 08:44:27;;;;;;;71.00;10.55;;;10.90;99.90;;;;;;4165163;28;20069;-79
2021/12/28 08:46:29;;;;;;;77.70;11.85;;;10.90;99.90;;;;;;4165329;28;20140;-78
2021/12/28 08:48:31;;;;;;;81.57;12.60;;;10.90;99.90;;;;;;4165102;28;20049;-78
2021/12/28 08:50:34;;;;;;;78.38;10.93;;;10.90;99.90;;;;;;4170737;28;20080;-79
2021/12/28 08:52:37;;;;;;;82.55;11.60;;;10.90;99.90;;;;;;4165365;28;20057;-78
2021/12/28 08:54:42;;;;;;;72.30;10.82;;;10.90;99.90;;;;;;4178411;28;20159;-79
2021/12/28 08:56:46;;;;;;;70.95;9.70;;;11.00;99.90;;;;;;4181606;28;20099;-80
2021/12/28 08:58:48;;;;;;;79.13;11.20;;;11.00;99.90;;;;;;4171867;28;20057;-79
2021/12/28 09:00:50;;;;;;;80.65;11.63;;;11.00;99.90;;;;;;4165493;28;20467;-78
2021/12/28 09:02:54;;;;;;;86.50;11.02;;;11.00;99.90;;;;;;4165975;28;20497;-78
2021/12/28 09:04:56;;;;;;;62.55;10.73;;;11.00;99.90;;;;;;4165828;28;20084;-78
2021/12/28 09:06:58;;;;;;;71.10;10.23;;;11.00;99.90;;;;;;4174018;28;20047;-80
2021/12/28 09:09:00;;;;;;;75.40;10.90;;;11.10;99.90;;;;;;4178100;28;20114;-79
2021/12/28 09:11:02;;;;;;;86.60;11.73;;;11.10;99.90;;;;;;4164339;28;20053;-78
2021/12/28 09:13:04;;;;;;;73.75;9.18;;;11.00;99.90;;;;;;4165201;28;20053;-79
2021/12/28 09:15:09;;;;;;;64.57;9.20;;;11.00;99.90;;;;;;4181185;28;20056;-79
2021/12/28 09:17:11;;;;;;;69.20;9.35;;;11.00;99.90;;;;;;4180027;28;20049;-79
2021/12/28 09:19:13;;;;;;;66.78;8.38;;;11.00;99.90;;;;;;4181098;28;20080;-79
2021/12/28 09:21:15;;;;;;;59.97;8.10;;;11.00;99.90;;;;;;4180920;28;20057;-79
2021/12/28 09:23:17;;;;;;;75.18;10.82;;;11.10;99.90;;;;;;4171257;28;20119;-79
2021/12/28 09:25:40;;;;;;;61.08;8.80;;;11.20;99.90;;;;;;4174209;28;20055;-78
2021/12/28 09:27:43;;;;;;;63.28;8.88;;;11.20;99.90;;;;;;4176418;28;20088;-80
2021/12/28 09:29:45;;;;;;;67.63;10.80;;;11.30;99.90;;;;;;4180069;28;20080;-80
2021/12/28 09:31:50;;;;;;;72.22;10.43;;;11.30;99.90;;;;;;4180968;28;20102;-79
2021/12/28 09:33:53;;;;;;;59.78;8.80;;;11.30;99.90;;;;;;4180906;28;20045;-78
2021/12/28 09:35:56;;;;;;;74.90;10.02;;;11.30;99.90;;;;;;4179178;28;20045;-78
2021/12/28 09:37:59;;;;;;;77.80;10.52;;;11.30;99.90;;;;;;4179445;28;20060;-78
2021/12/28 09:40:07;;;;;;;55.00;8.80;;;11.30;99.90;;;;;;4164153;28;20077;-78
2021/12/28 09:42:09;;;;;;;;;;;11.20;99.90;;;;;;4181424;28;20200;-78
2021/12/28 09:44:11;;;;;;;76.55;9.98;;;11.20;99.90;;;;;;4164842;28;19957;-79
2021/12/28 09:46:13;;;;;;;70.38;9.40;;;11.20;99.90;;;;;;4164072;28;20057;-78
2021/12/28 09:48:15;;;;;;;62.15;9.60;;;11.20;99.90;;;;;;4174956;28;20508;-78
2021/12/28 09:50:18;;;;;;;78.95;9.23;;;11.20;99.90;;;;;;4179695;28;20087;-79
2021/12/28 09:52:20;;;;;;;68.25;11.15;;;11.30;99.90;;;;;;4180553;28;20099;-78
2021/12/28 09:54:24;;;;;;;75.45;10.73;;;11.30;99.90;;;;;;4178841;28;20437;-78
2021/12/28 09:56:26;;;;;;;67.13;9.50;;;11.30;99.90;;;;;;4180591;28;20076;-79
2021/12/28 09:58:28;;;;;;;70.18;10.52;;;11.40;99.90;;;;;;4183687;28;20111;-80
2021/12/28 10:00:36;;;;;;;67.68;9.00;;;11.40;99.90;;;;;;4182433;28;20057;-79
2021/12/28 10:02:47;;;;;;;64.93;8.05;;;11.40;99.90;;;;;;4177839;28;20052;-80
2021/12/28 10:05:10;;;;;;;72.85;9.43;;;11.50;99.90;;;;;;4166565;28;20577;-79
2021/12/28 10:07:32;;;;;;;74.22;10.13;;;11.50;99.90;;;;;;4164006;28;20429;-79
2021/12/28 10:09:34;;;;;;;71.70;9.25;;;11.50;99.90;;;;;;4164206;28;20425;-79
2021/12/28 10:11:44;;;;;;;68.35;11.30;;;11.50;99.90;;;;;;4166653;28;20132;-79
2021/12/28 10:13:46;;;;;;;61.67;10.02;;;11.50;99.90;;;;;;4163891;28;20045;-81
2021/12/28 10:15:50;;;;;;;69.05;10.52;;;11.50;99.90;;;;;;4163913;28;20111;-79
2021/12/28 10:17:55;;;;;;;69.75;9.20;;;11.50;99.90;;;;;;4165285;28;20052;-79
2021/12/28 10:19:59;;;;;;;64.55;9.50;;;11.40;99.90;;;;;;4180271;28;20048;-78
2021/12/28 10:22:23;;;;;;;65.53;8.77;;;11.40;99.90;;;;;;4180402;28;20135;-79
2021/12/28 10:24:34;;;;;;;80.30;10.60;;;11.40;99.90;;;;;;4173056;28;20503;-80
2021/12/28 10:26:36;;;;;;;73.90;9.18;;;11.30;99.90;;;;;;4175614;28;20128;-77
2021/12/28 10:28:45;;;;;;;90.43;10.98;;;11.30;99.90;;;;;;4163824;28;20586;-80
2021/12/28 10:30:50;;;;;;;70.80;9.80;;;11.40;99.90;;;;;;4191424;28;20726;-80
2021/12/28 10:32:59;;;;;;;69.18;10.10;;;11.30;99.90;;;;;;4183553;28;20049;-79